Impacts TAF Board INFO
FOR SITUATIONAL AWARENESS. NOT TO BE USED FOR FLIGHT PLANNING PURPOSES.
IDs:

KLGA - New York/La Guardia, NY, US

Issued at 0412 UTC 18 Feb 2018
Updated at 0504 UTC 18 Feb 2018
Potential Impact None Slight Moderate High
Time<<18/18Z 18/19Z 18/20Z 18/21Z 18/22Z 18/23Z 19/00Z 19/01Z 19/02Z 19/03Z 19/04Z 19/05Z 19/06Z>>
Type PRVL PRVL PRVL PRVL PRVL PRVL PRVL PRVL PRVL PRVL PRVL PRVL
VIS >6 >6 >6 >6 >6 >6 >6 >6 >6 >6 >6 >6
CIG -- -- -- -- -- -- -- -- -- -- -- --
Cover FEW SKC SKC SKC SKC SKC SKC SKC SKC SKC SKC SKC
FltCat VFR VFR VFR VFR VFR VFR VFR VFR VFR VFR VFR VFR
WX -- -- -- -- -- -- -- -- -- -- -- --
WDir 320 290 290 290 290 290 VRB VRB VRB VRB VRB VRB
WSpd 14 10 10 10 10 10 4 4 4 4 4 4
WGst 23 -- -- -- -- -- -- -- -- -- -- --

Raw TAF
KLGA 180412Z 1804/1906 03006KT 2SM -SN BR SCT004 OVC009
  TEMPO 1804/1806 3/4SM -SN BR BKN004 OVC010
  FM180600 34005KT 2SM -SN BR SCT007 OVC015
  FM180900 32011KT P6SM SCT008 BKN060
  FM181200 32014G23KT P6SM FEW035
  FM181900 29010KT P6SM SKC
  FM190000 VRB04KT P6SM SKC


METAR Board
Radar Display
Forecast Discussion

FOR SITUATIONAL AWARENESS. NOT TO BE USED FOR FLIGHT PLANNING PURPOSES.